createdAt,value
2022-12-29T00:01:07.209Z,96380.78
2022-12-29T00:03:53.339Z,96389.41
2022-12-29T00:06:39.156Z,96387.78
2022-12-29T00:09:24.817Z,96395.25
2022-12-29T00:12:10.423Z,96405.47
2022-12-29T00:30:41.959Z,96391.72
2022-12-29T00:33:49.989Z,96398.13
2022-12-29T00:36:40.722Z,96397.59
2022-12-29T00:39:45.540Z,96396.47
2022-12-29T00:42:49.931Z,96406.41
2022-12-29T00:45:35.974Z,96402.84
2022-12-29T00:48:42.168Z,96403.38
2022-12-29T00:51:28.213Z,96408.66
2022-12-29T00:54:14.229Z,96411.59
2022-12-29T00:57:01.603Z,96398.41
2022-12-29T00:59:47.612Z,96398.88
2022-12-29T01:02:35.439Z,96396.19
2022-12-29T01:05:22.692Z,96401.53
2022-12-29T01:08:08.424Z,96409.84
2022-12-29T01:11:11.553Z,96413.34
2022-12-29T01:14:04.096Z,96403.44
2022-12-29T01:16:51.074Z,96402.34
2022-12-29T01:19:37.009Z,96399.94
2022-12-29T01:22:22.645Z,96403.16
2022-12-29T01:25:08.447Z,96412.53
2022-12-29T01:27:54.222Z,96417.09
2022-12-29T01:30:39.859Z,96400.41
2022-12-29T01:33:25.612Z,96406.34
2022-12-29T01:36:14.012Z,96405.19
2022-12-29T01:39:00.313Z,96397.38
2022-12-29T01:41:46.571Z,96399.81
2022-12-29T01:44:55.806Z,96393.38
2022-12-29T01:48:00.322Z,96385.34
2022-12-29T01:50:47.641Z,96387.47
2022-12-29T01:53:35.923Z,96378.38
2022-12-29T01:56:22.652Z,96383.72
2022-12-29T01:59:13.519Z,96377.81
2022-12-29T02:02:01.263Z,96369.69
2022-12-29T02:04:47.077Z,96362.72
2022-12-29T02:07:37.150Z,96360.03
2022-12-29T02:10:24.728Z,96350.91
2022-12-29T02:13:10.732Z,96344.66
2022-12-29T02:16:16.135Z,96352.13
2022-12-29T02:19:05.132Z,96350.22
2022-12-29T02:22:04.123Z,96350.97
2022-12-29T02:25:15.455Z,96363.53
2022-12-29T02:28:10.716Z,96361.44
2022-12-29T02:31:11.629Z,96360.38
2022-12-29T02:34:12.759Z,96365.81
2022-12-29T02:37:29.729Z,96360.97
2022-12-29T02:40:25.230Z,96366.66
2022-12-29T02:43:24.565Z,96373.63
2022-12-29T02:46:13.628Z,96382.47
2022-12-29T02:49:33.368Z,96374.38
2022-12-29T02:52:24.988Z,96379.72
2022-12-29T02:55:12.746Z,96381.34
2022-12-29T02:58:23.619Z,96374.94
2022-12-29T03:01:24.785Z,96382.47
2022-12-29T03:04:43.696Z,96371.22
2022-12-29T03:07:48.091Z,96372.00
2022-12-29T03:10:49.996Z,96373.38
2022-12-29T03:14:12.362Z,96373.16
2022-12-29T03:17:02.469Z,96369.66
2022-12-29T03:19:50.461Z,96370.72
2022-12-29T03:22:41.926Z,96367.47
2022-12-29T03:25:39.646Z,96361.88
2022-12-29T03:28:31.702Z,96363.72
2022-12-29T03:31:18.001Z,96368.53
2022-12-29T03:34:04.359Z,96372.34
2022-12-29T03:37:14.203Z,96369.66
2022-12-29T03:40:00.383Z,96367.53
2022-12-29T03:42:46.556Z,96369.13
2022-12-29T03:45:32.619Z,96365.66
2022-12-29T03:48:18.702Z,96361.09
2022-12-29T03:51:06.216Z,96369.19
2022-12-29T03:53:52.257Z,96368.16
2022-12-29T03:56:38.049Z,96377.25
2022-12-29T03:59:24.492Z,96368.63
2022-12-29T04:02:10.861Z,96372.69
2022-12-29T04:04:57.211Z,96380.47
2022-12-29T04:07:43.124Z,96390.16
2022-12-29T04:10:28.950Z,96380.47
2022-12-29T04:13:18.113Z,96374.63
2022-12-29T04:16:04.575Z,96380.00
2022-12-29T04:18:50.734Z,96368.97
2022-12-29T04:21:36.802Z,96369.78
2022-12-29T04:24:23.418Z,96373.75
2022-12-29T04:27:09.585Z,96371.06
2022-12-29T04:30:14.133Z,96376.91
2022-12-29T04:33:13.384Z,96379.81
2022-12-29T04:36:02.482Z,96381.88
2022-12-29T04:38:48.647Z,96390.97
2022-12-29T04:41:34.508Z,96396.25
2022-12-29T04:45:33.575Z,96398.88
2022-12-29T04:48:33.798Z,96403.66
2022-12-29T04:51:54.083Z,96407.41
2022-12-29T04:54:40.722Z,96394.56
2022-12-29T04:57:32.947Z,96405.28
2022-12-29T05:00:20.378Z,96410.94
2022-12-29T05:03:06.961Z,96409.31
2022-12-29T05:07:03.391Z,96403.16
2022-12-29T05:14:02.845Z,96412.75
2022-12-29T05:16:48.724Z,96411.13
2022-12-29T05:19:34.820Z,96406.72
2022-12-29T05:22:40.634Z,96413.69
2022-12-29T05:25:27.881Z,96419.06
2022-12-29T05:28:23.866Z,96415.84
2022-12-29T05:31:36.874Z,96417.38
2022-12-29T05:34:24.424Z,96419.25
2022-12-29T05:37:10.903Z,96420.78
2022-12-29T05:40:00.561Z,96420.25
2022-12-29T05:42:51.432Z,96428.81
2022-12-29T05:46:00.446Z,96426.09
2022-12-29T05:49:05.890Z,96422.50
2022-12-29T05:52:46.808Z,96432.81
2022-12-29T05:55:33.274Z,96425.28
2022-12-29T05:58:19.415Z,96421.53
2022-12-29T06:01:10.317Z,96435.97
2022-12-29T06:03:57.074Z,96431.13
2022-12-29T06:06:43.963Z,96433.22
2022-12-29T06:09:38.926Z,96434.84
2022-12-29T06:12:28.472Z,96427.25
2022-12-29T06:15:14.920Z,96435.03
2022-12-29T06:18:03.775Z,96443.28
2022-12-29T06:20:50.163Z,96444.34
2022-12-29T06:23:41.312Z,96443.78
2022-12-29T06:26:31.059Z,96453.38
2022-12-29T06:29:18.226Z,96443.16
2022-12-29T06:32:45.695Z,96453.38
2022-12-29T06:35:32.228Z,96458.44
2022-12-29T06:38:40.799Z,96453.84
2022-12-29T06:41:31.950Z,96459.19
2022-12-29T06:44:42.124Z,96460.97
2022-12-29T06:47:29.223Z,96467.72
2022-12-29T06:50:14.943Z,96465.03
2022-12-29T06:53:01.115Z,96470.38
2022-12-29T06:55:46.786Z,96463.16
2022-12-29T06:58:32.751Z,96464.56
2022-12-29T07:01:19.190Z,96472.81
2022-12-29T07:04:06.187Z,96476.22
2022-12-29T07:06:51.884Z,96467.50
2022-12-29T07:09:37.610Z,96480.28
2022-12-29T07:12:23.629Z,96482.38
2022-12-29T07:15:10.189Z,96480.28
2022-12-29T07:17:55.969Z,96487.75
2022-12-29T07:20:41.638Z,96481.25
2022-12-29T07:23:27.444Z,96487.75
2022-12-29T07:26:15.359Z,96504.59
2022-12-29T07:29:02.246Z,96494.38
2022-12-29T07:31:48.104Z,96504.25
2022-12-29T07:34:33.677Z,96496.72
2022-12-29T07:37:19.585Z,96489.66
2022-12-29T07:40:06.019Z,96493.63
2022-12-29T07:42:51.799Z,96500.38
2022-12-29T07:45:45.654Z,96498.16
2022-12-29T07:48:31.407Z,96498.75
2022-12-29T07:51:17.220Z,96510.59
2022-12-29T07:54:02.911Z,96508.97
2022-12-29T07:56:48.667Z,96500.69
2022-12-29T07:59:34.360Z,96517.06
2022-12-29T08:02:20.110Z,96524.03
2022-12-29T08:05:06.839Z,96522.41
2022-12-29T08:07:52.424Z,96520.78
2022-12-29T08:10:38.271Z,96526.72
2022-12-29T08:13:24.315Z,96526.25
2022-12-29T08:16:16.194Z,96526.34
2022-12-29T08:19:02.576Z,96522.22
2022-12-29T08:21:48.637Z,96530.88
2022-12-29T08:24:34.169Z,96533.88
2022-12-29T08:27:27.425Z,96535.00
2022-12-29T08:30:48.836Z,96532.66
2022-12-29T08:33:34.991Z,96529.56
2022-12-29T08:36:20.845Z,96532.34
2022-12-29T08:39:06.790Z,96534.59
2022-12-29T08:41:56.627Z,96533.13
2022-12-29T08:44:46.984Z,96537.03
2022-12-29T08:47:32.669Z,96532.34
2022-12-29T08:50:18.659Z,96535.91
2022-12-29T08:53:04.739Z,96537.91
2022-12-29T08:56:02.396Z,96537.19
2022-12-29T08:59:03.165Z,96527.66
2022-12-29T09:01:50.355Z,96525.91
2022-12-29T09:04:36.478Z,96528.19
2022-12-29T09:07:22.530Z,96529.16
2022-12-29T09:10:08.434Z,96528.91
2022-12-29T09:12:54.323Z,96526.44
2022-12-29T09:15:40.530Z,96517.22
2022-12-29T09:18:26.466Z,96524.41
2022-12-29T09:21:13.529Z,96515.94
2022-12-29T09:23:59.160Z,96516.09
2022-12-29T09:26:47.055Z,96510.03
2022-12-29T09:29:37.961Z,96501.84
2022-12-29T09:32:24.394Z,96503.63
2022-12-29T09:35:10.981Z,96495.63
2022-12-29T09:37:56.965Z,96481.66
2022-12-29T09:40:51.873Z,96475.25
2022-12-29T09:44:12.769Z,96473.13
2022-12-29T09:47:01.740Z,96470.44
2022-12-29T09:49:50.715Z,96471.25
2022-12-29T09:52:46.482Z,96466.91
2022-12-29T09:55:40.459Z,96466.06
2022-12-29T09:58:46.735Z,96464.97
2022-12-29T10:01:38.581Z,96453.06
2022-12-29T10:04:27.823Z,96457.00
2022-12-29T10:07:37.282Z,96451.28
2022-12-29T10:10:32.727Z,96458.50
2022-12-29T10:13:22.869Z,96452.72
2022-12-29T10:16:29.413Z,96444.00
2022-12-29T10:19:22.383Z,96447.63
2022-12-29T10:22:36.079Z,96439.94
2022-12-29T10:25:27.223Z,96432.28
2022-12-29T10:28:24.540Z,96431.66
2022-12-29T10:31:35.936Z,96425.00
2022-12-29T10:34:53.673Z,96421.53
2022-12-29T10:37:54.481Z,96418.84
2022-12-29T10:41:08.658Z,96408.28
2022-12-29T10:43:58.512Z,96404.47
2022-12-29T10:46:56.790Z,96400.72
2022-12-29T10:49:43.714Z,96404.47
2022-12-29T10:52:30.073Z,96393.88
2022-12-29T10:55:24.089Z,96402.75
2022-12-29T10:58:13.945Z,96401.69
2022-12-29T11:01:00.675Z,96396.59
2022-12-29T11:04:05.451Z,96398.31
2022-12-29T11:06:51.480Z,96377.13
2022-12-29T11:09:42.697Z,96387.78
2022-12-29T11:12:42.289Z,96387.38
2022-12-29T11:15:28.573Z,96383.78
2022-12-29T11:18:43.657Z,96382.75
2022-12-29T11:21:43.648Z,96364.50
2022-12-29T11:24:32.135Z,96364.41
2022-12-29T11:27:27.857Z,96357.75
2022-12-29T11:30:27.542Z,96345.00
2022-12-29T11:33:15.496Z,96346.75
2022-12-29T11:36:04.379Z,96349.44
2022-12-29T11:38:52.586Z,96340.34
2022-12-29T11:41:38.623Z,96333.53
2022-12-29T11:44:25.427Z,96341.13
2022-12-29T11:47:21.458Z,96333.16
2022-12-29T11:50:09.298Z,96336.38
2022-12-29T11:53:21.665Z,96337.72
2022-12-29T11:56:10.880Z,96335.19
2022-12-29T11:58:56.999Z,96339.22
2022-12-29T12:01:44.114Z,96326.47
2022-12-29T12:04:32.395Z,96334.97
2022-12-29T12:07:22.169Z,96325.53
2022-12-29T12:10:33.812Z,96319.91
2022-12-29T12:13:25.201Z,96321.34
2022-12-29T12:16:16.621Z,96312.78
2022-12-29T12:19:16.598Z,96320.09
2022-12-29T12:22:10.007Z,96312.19
2022-12-29T12:25:00.270Z,96301.69
2022-12-29T12:28:00.964Z,96295.22
2022-12-29T12:30:50.304Z,96296.69
2022-12-29T12:33:46.017Z,96294.38
2022-12-29T12:37:11.242Z,96294.00
2022-12-29T12:40:00.332Z,96288.56
2022-12-29T12:43:11.384Z,96279.78
2022-12-29T12:46:32.114Z,96273.25
2022-12-29T12:49:24.426Z,96277.06
2022-12-29T12:52:32.011Z,96273.50
2022-12-29T12:56:13.974Z,96267.81
2022-12-29T12:59:11.822Z,96266.34
2022-12-29T13:02:30.924Z,96264.84
2022-12-29T13:05:35.594Z,96261.78
2022-12-29T13:08:50.570Z,96267.47
2022-12-29T13:12:00.067Z,96262.88
2022-12-29T13:15:06.383Z,96267.53
2022-12-29T13:18:12.572Z,96260.94
2022-12-29T13:21:06.519Z,96263.34
2022-12-29T13:24:15.121Z,96264.81
2022-12-29T13:27:25.612Z,96271.13
2022-12-29T13:30:16.855Z,96266.31
2022-12-29T13:33:23.151Z,96274.44
2022-12-29T13:36:32.948Z,96275.81
2022-12-29T13:39:38.164Z,96279.38
2022-12-29T13:42:25.490Z,96286.56
2022-12-29T13:45:32.735Z,96284.91
2022-12-29T13:48:22.949Z,96274.03
2022-12-29T13:51:10.571Z,96274.19
2022-12-29T13:54:05.113Z,96284.00
2022-12-29T13:56:53.418Z,96292.19
2022-12-29T13:59:42.723Z,96293.38
2022-12-29T14:02:28.902Z,96292.31
2022-12-29T14:05:31.237Z,96288.09
2022-12-29T14:08:18.430Z,96291.31
2022-12-29T14:11:13.393Z,96291.91
2022-12-29T14:13:59.496Z,96290.88
2022-12-29T14:16:46.902Z,96295.25
2022-12-29T14:19:42.305Z,96287.22
2022-12-29T14:22:33.182Z,96296.22
2022-12-29T14:25:57.111Z,96290.34
2022-12-29T14:28:48.958Z,96286.91
2022-12-29T14:31:36.413Z,96287.25
2022-12-29T14:34:22.465Z,96288.63
2022-12-29T14:37:43.621Z,96291.19
2022-12-29T14:40:29.673Z,96292.34
2022-12-29T14:43:26.829Z,96290.78
2022-12-29T14:46:12.858Z,96295.69
2022-12-29T14:48:59.963Z,96300.84
2022-12-29T14:51:48.083Z,96288.44
2022-12-29T14:54:40.000Z,96293.84
2022-12-29T14:57:30.153Z,96298.75
2022-12-29T15:00:26.630Z,96285.53
2022-12-29T15:03:21.330Z,96284.50
2022-12-29T15:06:15.335Z,96289.66
2022-12-29T15:09:01.298Z,96294.25
2022-12-29T15:11:54.191Z,96287.03
2022-12-29T15:14:51.576Z,96288.09
2022-12-29T15:17:39.911Z,96285.41
2022-12-29T15:20:31.495Z,96288.69
2022-12-29T15:23:18.371Z,96286.56
2022-12-29T15:26:08.635Z,96285.53
2022-12-29T15:28:55.743Z,96282.28
2022-12-29T15:31:49.870Z,96281.25
2022-12-29T15:34:36.044Z,96284.25
2022-12-29T15:37:30.221Z,96289.41
2022-12-29T15:40:31.868Z,96292.97
2022-12-29T15:44:01.638Z,96284.13
2022-12-29T15:46:52.158Z,96294.38
2022-12-29T15:49:38.360Z,96285.81
2022-12-29T15:52:25.785Z,96299.81
2022-12-29T15:55:42.953Z,96300.94
2022-12-29T15:58:30.716Z,96303.63
2022-12-29T16:01:20.987Z,96303.13
2022-12-29T16:04:08.207Z,96306.63
2022-12-29T16:07:07.046Z,96299.88
2022-12-29T16:09:58.458Z,96299.34
2022-12-29T16:12:44.937Z,96304.50
2022-12-29T16:15:30.968Z,96310.22
2022-12-29T16:18:28.444Z,96310.25
2022-12-29T16:21:29.506Z,96312.97
2022-12-29T16:24:26.782Z,96314.13
2022-12-29T16:27:25.380Z,96307.91
2022-12-29T16:30:32.834Z,96310.34
2022-12-29T16:34:10.563Z,96314.19
2022-12-29T16:37:05.443Z,96320.13
2022-12-29T16:39:51.377Z,96316.97
2022-12-29T16:42:51.876Z,96322.91
2022-12-29T16:45:48.040Z,96328.34
2022-12-29T16:48:51.175Z,96332.16
2022-12-29T16:51:37.683Z,96332.19
2022-12-29T16:54:53.947Z,96332.50
2022-12-29T16:57:39.541Z,96341.44
2022-12-29T17:00:28.025Z,96331.47
2022-12-29T17:03:14.682Z,96336.09
2022-12-29T17:06:00.883Z,96343.66
2022-12-29T17:08:47.480Z,96343.66
2022-12-29T17:11:59.441Z,96347.97
2022-12-29T17:14:59.976Z,96349.88
2022-12-29T17:17:46.886Z,96352.63
2022-12-29T17:20:32.906Z,96355.59
2022-12-29T17:23:24.456Z,96355.31
2022-12-29T17:26:17.329Z,96355.09
2022-12-29T17:29:03.970Z,96351.63
2022-12-29T17:31:49.891Z,96366.94
2022-12-29T17:34:35.386Z,96362.66
2022-12-29T17:37:23.878Z,96363.72
2022-12-29T17:40:14.951Z,96357.03
2022-12-29T17:43:00.920Z,96357.31
2022-12-29T17:45:51.319Z,96365.41
2022-12-29T17:48:37.286Z,96361.13
2022-12-29T17:51:23.066Z,96355.75
2022-12-29T17:54:20.514Z,96363.81
2022-12-29T17:57:06.404Z,96363.28
2022-12-29T17:59:52.446Z,96357.34
2022-12-29T18:02:38.356Z,96361.13
2022-12-29T18:05:27.027Z,96360.31
2022-12-29T18:08:13.405Z,96354.41
2022-12-29T18:10:59.190Z,96347.13
2022-12-29T18:13:46.958Z,96349.84
2022-12-29T18:16:32.873Z,96353.31
2022-12-29T18:19:18.490Z,96343.63
2022-12-29T18:22:04.381Z,96347.94
2022-12-29T18:24:50.934Z,96359.78
2022-12-29T18:27:36.529Z,96361.09
2022-12-29T18:30:22.890Z,96356.00
2022-12-29T18:33:20.974Z,96358.91
2022-12-29T18:36:10.407Z,96357.81
2022-12-29T18:38:56.520Z,96350.53
2022-12-29T18:41:42.331Z,96358.34
2022-12-29T18:44:28.444Z,96366.13
2022-12-29T18:47:14.651Z,96362.06
2022-12-29T18:50:00.481Z,96368.50
2022-12-29T18:52:46.513Z,96365.25
2022-12-29T18:55:32.920Z,96364.16
2022-12-29T18:58:18.825Z,96361.47
2022-12-29T19:01:06.629Z,96359.56
2022-12-29T19:03:52.777Z,96365.19
2022-12-29T19:06:38.945Z,96360.84
2022-12-29T19:09:26.702Z,96370.53
2022-12-29T19:12:15.773Z,96382.84
2022-12-29T19:15:02.405Z,96373.72
2022-12-29T19:18:01.965Z,96356.19
2022-12-29T19:20:57.523Z,96376.88
2022-12-29T19:23:43.365Z,96363.19
2022-12-29T19:26:37.433Z,96363.13
2022-12-29T19:29:23.441Z,96380.06
2022-12-29T19:32:09.330Z,96376.81
2022-12-29T19:34:55.013Z,96371.19
2022-12-29T19:37:41.653Z,96377.34
2022-12-29T19:40:28.041Z,96371.69
2022-12-29T19:43:14.506Z,96375.75
2022-12-29T19:46:09.496Z,96378.69
2022-12-29T19:48:59.459Z,96369.78
2022-12-29T19:51:45.595Z,96382.16
2022-12-29T19:54:31.826Z,96379.75
2022-12-29T19:57:18.071Z,96383.00
2022-12-29T20:00:04.404Z,96374.69
2022-12-29T20:02:57.845Z,96383.00
2022-12-29T20:05:48.943Z,96377.66
2022-12-29T20:08:35.631Z,96373.66
2022-12-29T20:11:21.976Z,96375.56
2022-12-29T20:14:08.279Z,96375.84
2022-12-29T20:17:10.770Z,96378.53
2022-12-29T20:20:01.291Z,96380.97
2022-12-29T20:22:46.941Z,96376.16
2022-12-29T20:25:48.597Z,96374.28
2022-12-29T20:28:36.969Z,96370.75
2022-12-29T20:31:41.361Z,96373.72
2022-12-29T20:34:31.574Z,96363.47
2022-12-29T20:37:17.914Z,96369.38
2022-12-29T20:40:04.613Z,96362.38
2022-12-29T20:42:50.318Z,96375.81
2022-12-29T20:45:36.820Z,96369.88
2022-12-29T20:48:22.615Z,96351.03
2022-12-29T20:51:08.988Z,96368.81
2022-12-29T20:53:55.002Z,96371.75
2022-12-29T20:56:40.884Z,96366.06
2022-12-29T20:59:28.021Z,96363.38
2022-12-29T21:02:22.720Z,96370.38
2022-12-29T21:05:25.659Z,96374.69
2022-12-29T21:08:12.513Z,96373.31
2022-12-29T21:10:58.996Z,96367.88
2022-12-29T21:13:48.007Z,96375.69
2022-12-29T21:16:34.032Z,96378.81
2022-12-29T21:19:20.247Z,96364.78
2022-12-29T21:22:06.321Z,96375.56
2022-12-29T21:24:52.361Z,96368.53
2022-12-29T21:27:38.994Z,96379.25
2022-12-29T21:30:25.206Z,96368.53
2022-12-29T21:33:10.878Z,96369.56
2022-12-29T21:36:04.178Z,96376.06
2022-12-29T21:38:50.082Z,96378.19
2022-12-29T21:41:36.498Z,96376.56
2022-12-29T21:44:41.799Z,96366.34
2022-12-29T21:47:48.983Z,96368.75
2022-12-29T21:50:58.408Z,96362.56
2022-12-29T21:53:47.852Z,96354.72
2022-12-29T21:56:40.085Z,96355.53
2022-12-29T21:59:44.678Z,96350.16
2022-12-29T22:02:49.405Z,96356.03
2022-12-29T22:05:53.944Z,96349.59
2022-12-29T22:09:04.674Z,96348.78
2022-12-29T22:12:09.435Z,96345.31
2022-12-29T22:14:55.280Z,96346.66
2022-12-29T22:17:48.699Z,96346.41
2022-12-29T22:20:38.664Z,96344.81
2022-12-29T22:23:24.373Z,96345.09
2022-12-29T22:26:12.446Z,96345.91
2022-12-29T22:28:58.727Z,96349.16
2022-12-29T22:31:44.543Z,96347.28
2022-12-29T22:34:30.216Z,96349.97
2022-12-29T22:37:16.617Z,96356.09
2022-12-29T22:40:02.568Z,96352.91
2022-12-29T22:42:48.236Z,96346.72
2022-12-29T22:45:34.017Z,96345.91
2022-12-29T22:48:19.682Z,96342.16
2022-12-29T22:51:05.805Z,96341.34
2022-12-29T22:53:51.926Z,96338.41
2022-12-29T22:56:42.161Z,96340.00
2022-12-29T22:59:28.144Z,96336.00
2022-12-29T23:02:13.916Z,96337.88
2022-12-29T23:05:03.413Z,96331.50
2022-12-29T23:07:50.235Z,96328.81
2022-12-29T23:10:36.119Z,96329.88
2022-12-29T23:13:22.027Z,96325.53
2022-12-29T23:16:08.237Z,96325.53
2022-12-29T23:18:54.068Z,96319.09
2022-12-29T23:21:40.112Z,96324.69
2022-12-29T23:24:26.213Z,96327.88
2022-12-29T23:27:12.234Z,96322.22
2022-12-29T23:29:58.098Z,96316.34
2022-12-29T23:32:44.031Z,96321.69
2022-12-29T23:35:29.905Z,96324.88
2022-12-29T23:38:15.647Z,96318.94
2022-12-29T23:41:01.525Z,96326.72
2022-12-29T23:43:47.364Z,96326.69
2022-12-29T23:46:33.167Z,96328.06
2022-12-29T23:49:18.993Z,96332.31
2022-12-29T23:52:04.790Z,96327.44
2022-12-29T23:54:50.495Z,96320.47
2022-12-29T23:57:36.229Z,96333.63
